createdAt,value
2022-09-16T00:00:27.239Z,100821.38
2022-09-16T00:02:54.854Z,100824.47
2022-09-16T00:05:21.922Z,100822.78
2022-09-16T00:07:48.622Z,100822.22
2022-09-16T00:11:04.513Z,100825.88
2022-09-16T00:13:31.554Z,100824.22
2022-09-16T00:15:58.202Z,100823.28
2022-09-16T00:18:25.306Z,100819.47
2022-09-16T00:20:55.122Z,100826.03
2022-09-16T00:23:21.921Z,100820.38
2022-09-16T00:25:53.029Z,100820.94
2022-09-16T00:28:21.776Z,100828.97
2022-09-16T00:30:49.763Z,100824.31
2022-09-16T00:33:16.761Z,100825.50
2022-09-16T00:35:43.474Z,100824.09
2022-09-16T00:38:10.276Z,100825.78
2022-09-16T00:40:47.314Z,100822.22
2022-09-16T00:43:18.745Z,100831.59
2022-09-16T00:45:57.619Z,100820.31
2022-09-16T00:48:26.649Z,100820.06
2022-09-16T00:51:00.711Z,100819.91
2022-09-16T00:53:31.865Z,100815.94
2022-09-16T00:56:00.160Z,100821.69
2022-09-16T00:58:43.183Z,100817.28
2022-09-16T01:01:10.236Z,100825.28
2022-09-16T01:03:50.246Z,100822.09
2022-09-16T01:06:18.773Z,100826.53
2022-09-16T01:08:45.748Z,100825.53
2022-09-16T01:11:12.440Z,100821.66
2022-09-16T01:13:40.241Z,100823.25
2022-09-16T01:16:11.256Z,100822.66
2022-09-16T01:19:16.528Z,100826.19
2022-09-16T01:21:51.107Z,100830.56
2022-09-16T01:24:33.014Z,100825.50
2022-09-16T01:27:37.284Z,100832.09
2022-09-16T01:30:12.635Z,100834.38
2022-09-16T01:33:01.458Z,100826.34
2022-09-16T01:35:28.141Z,100824.88
2022-09-16T01:38:09.797Z,100822.91
2022-09-16T01:41:03.741Z,100819.56
2022-09-16T01:43:40.763Z,100816.81
2022-09-16T01:46:21.766Z,100817.75
2022-09-16T01:48:57.295Z,100817.13
2022-09-16T01:51:46.008Z,100807.72
2022-09-16T01:54:35.126Z,100818.81
2022-09-16T01:57:12.155Z,100820.41
2022-09-16T01:59:48.732Z,100817.84
2022-09-16T02:02:20.444Z,100823.22
2022-09-16T02:04:51.409Z,100821.00
2022-09-16T02:07:20.721Z,100819.69
2022-09-16T02:09:58.553Z,100813.41
2022-09-16T02:12:29.694Z,100812.94
2022-09-16T02:15:01.644Z,100818.22
2022-09-16T02:17:30.557Z,100815.38
2022-09-16T02:20:01.437Z,100823.78
2022-09-16T02:22:41.028Z,100823.44
2022-09-16T02:25:08.931Z,100813.50
2022-09-16T02:27:36.849Z,100810.63
2022-09-16T02:30:07.745Z,100810.59
2022-09-16T02:32:37.521Z,100811.25
2022-09-16T02:35:06.420Z,100808.53
2022-09-16T02:37:35.395Z,100814.00
2022-09-16T02:40:10.648Z,100812.06
2022-09-16T02:42:37.450Z,100816.91
2022-09-16T02:45:05.429Z,100818.09
2022-09-16T02:47:31.997Z,100819.41
2022-09-16T02:50:40.464Z,100810.75
2022-09-16T02:53:33.178Z,100813.03
2022-09-16T02:56:03.343Z,100809.97
2022-09-16T02:58:30.220Z,100816.88
2022-09-16T03:00:58.291Z,100821.16
2022-09-16T03:03:25.325Z,100808.72
2022-09-16T03:06:18.422Z,100809.22
2022-09-16T03:08:45.722Z,100811.59
2022-09-16T03:11:30.680Z,100819.16
2022-09-16T03:14:15.871Z,100818.81
2022-09-16T03:17:05.214Z,100819.41
2022-09-16T03:19:35.471Z,100818.13
2022-09-16T03:22:03.250Z,100810.03
2022-09-16T03:24:50.038Z,100819.72
2022-09-16T03:27:26.511Z,100809.16
2022-09-16T03:29:57.882Z,100813.69
2022-09-16T03:32:28.305Z,100810.00
2022-09-16T03:35:01.132Z,100808.53
2022-09-16T03:37:29.786Z,100816.13
2022-09-16T03:39:58.826Z,100817.88
2022-09-16T03:42:26.212Z,100807.47
2022-09-16T03:44:53.623Z,100816.28
2022-09-16T03:47:20.328Z,100817.88
2022-09-16T03:49:47.090Z,100810.47
2022-09-16T03:52:13.744Z,100816.28
2022-09-16T03:54:40.503Z,100810.47
2022-09-16T03:57:07.179Z,100809.22
2022-09-16T03:59:33.861Z,100814.19
2022-09-16T04:02:00.687Z,100816.47
2022-09-16T04:04:27.548Z,100825.97
2022-09-16T04:06:55.792Z,100819.47
2022-09-16T04:09:22.474Z,100819.41
2022-09-16T04:11:49.288Z,100811.34
2022-09-16T04:14:16.293Z,100812.69
2022-09-16T04:16:45.237Z,100812.69
2022-09-16T04:19:13.470Z,100817.75
2022-09-16T04:21:41.578Z,100822.94
2022-09-16T04:24:13.188Z,100820.25
2022-09-16T04:26:40.988Z,100816.81
2022-09-16T04:29:07.829Z,100818.97
2022-09-16T04:31:34.557Z,100821.06
2022-09-16T04:34:04.828Z,100821.25
2022-09-16T04:36:32.191Z,100824.53
2022-09-16T04:38:58.778Z,100822.31
2022-09-16T04:41:26.746Z,100821.59
2022-09-16T04:43:57.944Z,100827.66
2022-09-16T04:46:26.193Z,100818.38
2022-09-16T04:48:54.165Z,100820.59
2022-09-16T04:51:22.716Z,100818.75
2022-09-16T04:53:49.898Z,100813.63
2022-09-16T04:56:20.977Z,100809.63
2022-09-16T04:58:51.548Z,100801.59
2022-09-16T05:01:23.761Z,100805.56
2022-09-16T05:03:53.055Z,100802.50
2022-09-16T05:06:24.912Z,100805.22
2022-09-16T05:08:52.769Z,100799.78
2022-09-16T05:11:28.343Z,100805.88
2022-09-16T05:13:58.747Z,100813.09
2022-09-16T05:16:25.428Z,100816.09
2022-09-16T05:18:54.897Z,100822.69
2022-09-16T05:21:24.246Z,100814.97
2022-09-16T05:23:52.563Z,100813.53
2022-09-16T05:26:21.852Z,100812.47
2022-09-16T05:28:50.849Z,100818.47
2022-09-16T05:31:19.118Z,100830.34
2022-09-16T05:33:48.213Z,100835.06
2022-09-16T05:36:17.634Z,100835.97
2022-09-16T05:38:59.140Z,100839.28
2022-09-16T05:41:33.829Z,100836.72
2022-09-16T05:44:01.631Z,100831.69
2022-09-16T05:46:29.000Z,100829.09
2022-09-16T05:48:56.576Z,100829.72
2022-09-16T05:51:24.170Z,100836.66
2022-09-16T05:53:51.612Z,100828.69
2022-09-16T05:56:25.754Z,100824.31
2022-09-16T05:58:57.596Z,100827.22
2022-09-16T06:01:28.420Z,100824.84
2022-09-16T06:03:55.729Z,100821.53
2022-09-16T06:06:32.532Z,100818.06
2022-09-16T06:09:03.879Z,100819.63
2022-09-16T06:11:30.683Z,100822.16
2022-09-16T06:14:00.133Z,100836.69
2022-09-16T06:16:28.063Z,100824.63
2022-09-16T06:18:55.687Z,100832.06
2022-09-16T06:21:23.108Z,100828.53
2022-09-16T06:23:49.748Z,100828.47
2022-09-16T06:26:19.138Z,100825.16
2022-09-16T06:28:46.923Z,100827.44
2022-09-16T06:31:16.034Z,100829.25
2022-09-16T06:33:43.297Z,100826.75
2022-09-16T06:36:12.547Z,100843.63
2022-09-16T06:38:39.259Z,100831.44
2022-09-16T06:41:08.806Z,100842.41
2022-09-16T06:43:36.505Z,100837.31
2022-09-16T06:46:16.260Z,100830.97
2022-09-16T06:48:47.567Z,100830.53
2022-09-16T06:51:18.675Z,100842.88
2022-09-16T06:53:46.954Z,100836.09
2022-09-16T06:56:17.202Z,100845.94
2022-09-16T06:58:48.115Z,100845.25
2022-09-16T07:01:20.339Z,100845.88
2022-09-16T07:03:49.307Z,100844.50
2022-09-16T07:06:17.270Z,100850.22
2022-09-16T07:08:44.347Z,100853.28
2022-09-16T07:11:19.010Z,100862.56
2022-09-16T07:13:49.304Z,100854.81
2022-09-16T07:16:18.850Z,100862.78
2022-09-16T07:18:46.972Z,100849.97
2022-09-16T07:21:18.468Z,100857.22
2022-09-16T07:23:45.980Z,100869.84
2022-09-16T07:26:23.236Z,100872.53
2022-09-16T07:28:50.733Z,100891.44
2022-09-16T07:31:19.837Z,100885.97
2022-09-16T07:33:48.866Z,100888.41
2022-09-16T07:36:18.652Z,100885.88
2022-09-16T07:38:45.813Z,100877.66
2022-09-16T07:41:21.683Z,100893.88
2022-09-16T07:43:49.240Z,100898.09
2022-09-16T07:46:17.637Z,100894.28
2022-09-16T07:48:46.258Z,100882.88
2022-09-16T07:51:21.737Z,100893.13
2022-09-16T07:54:03.536Z,100884.34
2022-09-16T07:56:34.815Z,100883.75
2022-09-16T07:59:03.511Z,100881.16
2022-09-16T08:01:31.513Z,100889.78
2022-09-16T08:03:58.632Z,100885.91
2022-09-16T08:06:27.553Z,100891.03
2022-09-16T08:08:59.795Z,100897.53
2022-09-16T08:11:32.545Z,100898.44
2022-09-16T08:14:00.000Z,100894.25
2022-09-16T08:16:26.999Z,100895.97
2022-09-16T08:18:55.553Z,100903.81
2022-09-16T08:21:24.660Z,100910.09
2022-09-16T08:23:52.394Z,100911.25
2022-09-16T08:26:19.944Z,100912.50
2022-09-16T08:29:07.937Z,100908.03
2022-09-16T08:31:35.681Z,100909.00
2022-09-16T08:34:02.657Z,100913.34
2022-09-16T08:36:31.508Z,100914.13
2022-09-16T08:38:58.260Z,100902.94
2022-09-16T08:41:45.293Z,100909.81
2022-09-16T08:44:15.015Z,100912.81
2022-09-16T08:46:59.887Z,100910.50
2022-09-16T08:49:46.461Z,100908.00
2022-09-16T08:52:32.852Z,100914.22
2022-09-16T08:55:08.491Z,100911.69
2022-09-16T08:57:40.420Z,100922.50
2022-09-16T09:00:13.978Z,100934.50
2022-09-16T09:02:56.486Z,100932.03
2022-09-16T09:05:41.410Z,100945.81
2022-09-16T09:08:36.320Z,100938.78
2022-09-16T09:11:41.893Z,100936.41
2022-09-16T09:14:33.593Z,100942.47
2022-09-16T09:17:12.288Z,100947.13
2022-09-16T09:20:01.315Z,100942.63
2022-09-16T09:22:54.701Z,100951.44
2022-09-16T09:25:27.481Z,100941.44
2022-09-16T09:28:13.908Z,100948.53
2022-09-16T09:30:47.764Z,100940.63
2022-09-16T09:33:44.503Z,100941.44
2022-09-16T09:36:33.321Z,100940.13
2022-09-16T09:39:12.415Z,100937.44
2022-09-16T09:42:03.450Z,100940.28
2022-09-16T09:44:46.655Z,100934.88
2022-09-16T09:47:27.776Z,100929.56
2022-09-16T09:50:02.098Z,100926.75
2022-09-16T09:52:39.424Z,100932.50
2022-09-16T09:55:21.021Z,100924.72
2022-09-16T09:58:02.004Z,100927.88
2022-09-16T10:00:28.951Z,100926.19
2022-09-16T10:03:04.998Z,100926.63
2022-09-16T10:05:32.041Z,100934.50
2022-09-16T10:08:03.278Z,100930.44
2022-09-16T10:10:34.342Z,100928.06
2022-09-16T10:13:11.613Z,100932.34
2022-09-16T10:15:39.166Z,100925.69
2022-09-16T10:18:13.302Z,100923.28
2022-09-16T10:20:43.815Z,100928.03
2022-09-16T10:23:16.235Z,100928.09
2022-09-16T10:25:43.933Z,100923.28
2022-09-16T10:28:36.973Z,100929.28
2022-09-16T10:31:07.050Z,100919.94
2022-09-16T10:33:36.287Z,100923.94
2022-09-16T10:36:06.397Z,100930.00
2022-09-16T10:38:37.382Z,100932.16
2022-09-16T10:41:26.384Z,100937.22
2022-09-16T10:44:16.478Z,100933.34
2022-09-16T10:46:58.239Z,100918.72
2022-09-16T10:49:35.108Z,100925.97
2022-09-16T10:52:10.066Z,100921.50
2022-09-16T10:54:36.962Z,100923.00
2022-09-16T10:57:03.638Z,100924.84
2022-09-16T10:59:30.390Z,100935.63
2022-09-16T11:01:57.382Z,100940.38
2022-09-16T11:04:30.343Z,100928.28
2022-09-16T11:07:06.096Z,100942.53
2022-09-16T11:09:55.085Z,100934.69
2022-09-16T11:12:46.685Z,100928.41
2022-09-16T11:15:25.150Z,100935.81
2022-09-16T11:18:09.741Z,100933.47
2022-09-16T11:21:01.024Z,100937.75
2022-09-16T11:23:41.188Z,100932.56
2022-09-16T11:26:16.864Z,100942.81
2022-09-16T11:29:25.382Z,100951.25
2022-09-16T11:32:15.105Z,100944.69
2022-09-16T11:34:55.507Z,100944.91
2022-09-16T11:37:39.424Z,100951.72
2022-09-16T11:40:15.865Z,100962.16
2022-09-16T11:42:46.776Z,100962.50
2022-09-16T11:45:28.951Z,100965.84
2022-09-16T11:48:38.291Z,100962.50
2022-09-16T11:51:51.338Z,100961.78
2022-09-16T11:54:40.455Z,100962.50
2022-09-16T11:57:17.276Z,100962.41
2022-09-16T11:59:50.194Z,100960.97
2022-09-16T12:02:48.624Z,100970.34
2022-09-16T12:05:20.155Z,100953.94
2022-09-16T12:08:29.925Z,100959.94
2022-09-16T12:11:02.436Z,100962.34
2022-09-16T12:13:53.916Z,100968.50
2022-09-16T12:16:38.409Z,100963.44
2022-09-16T12:19:17.085Z,100968.47
2022-09-16T12:21:58.951Z,100964.31
2022-09-16T12:24:42.751Z,100955.84
2022-09-16T12:27:34.844Z,100967.19
2022-09-16T12:30:17.179Z,100972.59
2022-09-16T12:32:57.593Z,100977.19
2022-09-16T12:35:29.267Z,100996.59
2022-09-16T12:37:57.599Z,101018.69
2022-09-16T12:40:26.987Z,101015.72
2022-09-16T12:43:06.018Z,101034.78
2022-09-16T12:46:07.866Z,101046.84
2022-09-16T12:48:47.165Z,101059.97
2022-09-16T12:51:32.850Z,101038.81
2022-09-16T12:54:41.260Z,101014.91
2022-09-16T12:57:59.386Z,101003.84
2022-09-16T13:00:49.562Z,100989.81
2022-09-16T13:03:22.013Z,100989.06
2022-09-16T13:05:50.841Z,100998.06
2022-09-16T13:08:24.223Z,100988.56
2022-09-16T13:11:47.171Z,100987.13
2022-09-16T13:13:57.591Z,100983.22
2022-09-16T13:16:33.090Z,100986.28
2022-09-16T13:19:08.788Z,100971.81
2022-09-16T13:21:41.674Z,100979.75
2022-09-16T13:24:31.552Z,100978.47
2022-09-16T13:26:58.392Z,100976.03
2022-09-16T13:29:26.829Z,100974.91
2022-09-16T13:31:53.646Z,100969.19
2022-09-16T13:34:21.871Z,100969.06
2022-09-16T13:36:48.596Z,100966.34
2022-09-16T13:39:28.155Z,100967.22
2022-09-16T13:41:55.373Z,100961.28
2022-09-16T13:44:38.516Z,100963.47
2022-09-16T13:47:11.289Z,100971.72
2022-09-16T13:50:08.779Z,100967.91
2022-09-16T13:52:36.175Z,100964.47
2022-09-16T13:55:10.489Z,100972.31
2022-09-16T13:57:50.067Z,100962.50
2022-09-16T14:00:36.150Z,100962.09
2022-09-16T14:03:18.112Z,100969.47
2022-09-16T14:06:12.161Z,100972.69
2022-09-16T14:08:38.760Z,100974.44
2022-09-16T14:11:25.132Z,100964.91
2022-09-16T14:14:05.051Z,100973.47
2022-09-16T14:16:34.740Z,100956.53
2022-09-16T14:19:08.341Z,100973.31
2022-09-16T14:21:35.080Z,100973.13
2022-09-16T14:24:19.092Z,100978.16
2022-09-16T14:26:57.374Z,100979.84
2022-09-16T14:29:27.179Z,100982.25
2022-09-16T14:31:55.322Z,100972.72
2022-09-16T14:34:27.595Z,100980.16
2022-09-16T14:36:54.343Z,100968.88
2022-09-16T14:39:23.331Z,100968.09
2022-09-16T14:41:59.131Z,100969.22
2022-09-16T14:44:33.406Z,100966.28
2022-09-16T14:47:09.137Z,100969.13
2022-09-16T14:49:40.194Z,100969.72
2022-09-16T14:52:18.359Z,100972.81
2022-09-16T14:54:45.145Z,100961.16
2022-09-16T14:57:19.356Z,100965.78
2022-09-16T14:59:46.589Z,100963.59
2022-09-16T15:02:26.611Z,100959.75
2022-09-16T15:05:02.037Z,100959.63
2022-09-16T15:07:34.030Z,100958.59
2022-09-16T15:10:08.320Z,100953.25
2022-09-16T15:12:48.641Z,100960.56
2022-09-16T15:15:27.136Z,100951.13
2022-09-16T15:18:05.985Z,100963.56
2022-09-16T15:20:34.777Z,100968.00
2022-09-16T15:23:02.859Z,100970.22
2022-09-16T15:25:34.687Z,100964.72
2022-09-16T15:28:16.036Z,100970.41
2022-09-16T15:30:54.173Z,100966.16
2022-09-16T15:33:35.322Z,100972.41
2022-09-16T15:36:03.483Z,100974.88
2022-09-16T15:38:31.390Z,100974.03
2022-09-16T15:41:05.737Z,100984.50
2022-09-16T15:43:40.597Z,100985.84
2022-09-16T15:46:16.302Z,100998.34
2022-09-16T15:48:45.426Z,100998.63
2022-09-16T15:51:35.333Z,101006.97
2022-09-16T15:54:07.857Z,101000.28
2022-09-16T15:56:43.952Z,101001.25
2022-09-16T15:59:31.694Z,101005.38
2022-09-16T16:02:01.043Z,100998.97
2022-09-16T16:04:30.643Z,101006.78
2022-09-16T16:06:59.891Z,101003.69
2022-09-16T16:09:30.421Z,101006.91
2022-09-16T16:12:04.999Z,101000.25
2022-09-16T16:14:32.773Z,100992.75
2022-09-16T16:17:13.574Z,100995.06
2022-09-16T16:19:46.207Z,101004.31
2022-09-16T16:22:13.631Z,101011.63
2022-09-16T16:24:40.483Z,101005.72
2022-09-16T16:27:08.561Z,101010.91
2022-09-16T16:29:35.684Z,101013.88
2022-09-16T16:32:10.505Z,101013.56
2022-09-16T16:34:47.769Z,101005.38
2022-09-16T16:37:40.161Z,101016.94
2022-09-16T16:40:05.867Z,101009.78
2022-09-16T16:42:44.418Z,101010.94
2022-09-16T16:45:14.778Z,101017.34
2022-09-16T16:47:42.467Z,101030.81
2022-09-16T16:50:10.448Z,101016.56
2022-09-16T16:52:37.718Z,101025.88
2022-09-16T16:55:05.385Z,101034.69
2022-09-16T16:57:32.115Z,101042.38
2022-09-16T16:59:58.845Z,101043.31
2022-09-16T17:02:28.413Z,101033.50
2022-09-16T17:04:55.781Z,101045.47
2022-09-16T17:07:29.934Z,101036.34
2022-09-16T17:09:59.629Z,101050.06
2022-09-16T17:12:27.008Z,101056.53
2022-09-16T17:14:53.844Z,101062.34
2022-09-16T17:17:26.372Z,101057.53
2022-09-16T17:19:55.722Z,101060.72
2022-09-16T17:22:23.030Z,101061.69
2022-09-16T17:24:54.966Z,101065.09
2022-09-16T17:27:27.064Z,101058.06
2022-09-16T17:29:57.151Z,101059.69
2022-09-16T17:32:24.231Z,101065.72
2022-09-16T17:34:50.865Z,101064.63
2022-09-16T17:37:25.325Z,101067.78
2022-09-16T17:39:52.031Z,101069.53
2022-09-16T17:42:18.872Z,101068.91
2022-09-16T17:44:45.577Z,101071.50
2022-09-16T17:47:12.592Z,101069.53
2022-09-16T17:49:39.315Z,101077.03
2022-09-16T17:52:05.941Z,101068.91
2022-09-16T17:54:32.645Z,101070.66
2022-09-16T17:56:59.451Z,101074.59
2022-09-16T17:59:26.212Z,101064.16
2022-09-16T18:01:53.005Z,101072.03
2022-09-16T18:04:19.753Z,101079.41
2022-09-16T18:06:47.095Z,101080.66
2022-09-16T18:09:14.376Z,101083.66
2022-09-16T18:11:41.339Z,101083.19
2022-09-16T18:14:10.866Z,101084.31
2022-09-16T18:16:38.034Z,101082.63
2022-09-16T18:19:06.045Z,101077.94
2022-09-16T18:21:33.847Z,101093.41
2022-09-16T18:24:02.738Z,101101.84
2022-09-16T18:26:30.780Z,101104.84
2022-09-16T18:29:18.981Z,101100.88
2022-09-16T18:31:47.814Z,101094.81
2022-09-16T18:34:15.495Z,101098.66
2022-09-16T18:36:42.563Z,101099.53
2022-09-16T18:39:14.765Z,101103.00
2022-09-16T18:41:42.883Z,101099.66
2022-09-16T18:44:21.352Z,101092.22
2022-09-16T18:46:48.151Z,101100.84
2022-09-16T18:49:16.309Z,101091.97
2022-09-16T18:51:49.862Z,101087.56
2022-09-16T18:54:28.209Z,101084.16
2022-09-16T18:56:59.890Z,101088.25
2022-09-16T18:59:29.953Z,101082.75
2022-09-16T19:01:59.360Z,101089.59
2022-09-16T19:04:32.897Z,101089.22
2022-09-16T19:07:07.642Z,101105.75
2022-09-16T19:09:36.211Z,101110.94
2022-09-16T19:12:03.630Z,101095.06
2022-09-16T19:14:30.755Z,101088.47
2022-09-16T19:16:57.452Z,101069.66
2022-09-16T19:19:24.132Z,101082.66
2022-09-16T19:21:50.971Z,101082.00
2022-09-16T19:24:20.512Z,101075.38
2022-09-16T19:26:48.067Z,101065.88
2022-09-16T19:29:15.863Z,101070.97
2022-09-16T19:31:44.141Z,101069.16
2022-09-16T19:34:11.676Z,101065.22
2022-09-16T19:36:39.498Z,101073.66
2022-09-16T19:39:07.249Z,101078.56
2022-09-16T19:41:36.248Z,101087.50
2022-09-16T19:44:05.059Z,101077.94
2022-09-16T19:46:34.815Z,101081.97
2022-09-16T19:49:02.159Z,101080.31
2022-09-16T19:51:29.221Z,101086.81
2022-09-16T19:53:56.429Z,101085.53
2022-09-16T19:56:25.919Z,101092.47
2022-09-16T19:58:54.062Z,101079.56
2022-09-16T20:01:30.414Z,101079.88
2022-09-16T20:03:57.295Z,101089.81
2022-09-16T20:06:33.062Z,101090.75
2022-09-16T20:09:01.092Z,101089.66
2022-09-16T20:11:31.543Z,101089.72
2022-09-16T20:14:02.063Z,101098.72
2022-09-16T20:16:32.088Z,101097.66
2022-09-16T20:18:58.996Z,101099.03
2022-09-16T20:21:26.800Z,101099.47
2022-09-16T20:23:54.470Z,101098.13
2022-09-16T20:26:22.144Z,101106.88
2022-09-16T20:28:54.504Z,101118.53
2022-09-16T20:31:23.574Z,101114.34
2022-09-16T20:33:51.530Z,101107.34
2022-09-16T20:36:20.612Z,101120.69
2022-09-16T20:38:49.948Z,101113.53
2022-09-16T20:41:25.450Z,101118.00
2022-09-16T20:43:53.130Z,101114.91
2022-09-16T20:46:22.379Z,101127.53
2022-09-16T20:48:49.919Z,101122.94
2022-09-16T20:51:19.366Z,101118.78
2022-09-16T20:54:08.133Z,101122.25
2022-09-16T20:56:40.092Z,101120.34
2022-09-16T20:59:08.916Z,101115.31
2022-09-16T21:01:37.429Z,101117.66
2022-09-16T21:04:06.840Z,101119.91
2022-09-16T21:06:35.028Z,101122.34
2022-09-16T21:09:05.523Z,101116.63
2022-09-16T21:11:33.212Z,101132.94
2022-09-16T21:14:01.992Z,101140.47
2022-09-16T21:16:31.561Z,101134.88
2022-09-16T21:19:00.832Z,101140.09
2022-09-16T21:21:28.629Z,101136.34
2022-09-16T21:23:57.850Z,101130.31
2022-09-16T21:26:28.679Z,101135.28
2022-09-16T21:28:57.896Z,101125.78
2022-09-16T21:31:26.441Z,101132.84
2022-09-16T21:33:54.633Z,101127.19
2022-09-16T21:36:24.413Z,101117.59
2022-09-16T21:38:51.846Z,101112.06
2022-09-16T21:41:21.346Z,101100.50
2022-09-16T21:43:50.815Z,101105.97
2022-09-16T21:46:23.120Z,101101.31
2022-09-16T21:48:50.494Z,101106.72
2022-09-16T21:51:19.294Z,101096.91
2022-09-16T21:53:46.780Z,101109.47
2022-09-16T21:56:16.249Z,101118.84
2022-09-16T21:58:43.354Z,101119.09
2022-09-16T22:01:19.075Z,101124.34
2022-09-16T22:03:48.154Z,101133.69
2022-09-16T22:06:18.420Z,101134.19
2022-09-16T22:08:49.308Z,101137.19
2022-09-16T22:11:18.346Z,101130.25
2022-09-16T22:13:45.457Z,101128.13
2022-09-16T22:16:13.992Z,101130.00
2022-09-16T22:18:40.855Z,101132.19
2022-09-16T22:21:08.844Z,101127.03
2022-09-16T22:23:37.287Z,101120.53
2022-09-16T22:26:06.181Z,101146.03
2022-09-16T22:28:33.526Z,101138.44
2022-09-16T22:31:10.745Z,101154.25
2022-09-16T22:33:39.325Z,101162.13
2022-09-16T22:36:08.281Z,101151.94
2022-09-16T22:38:35.498Z,101150.66
2022-09-16T22:41:07.286Z,101148.25
2022-09-16T22:43:41.409Z,101144.31
2022-09-16T22:46:14.708Z,101144.78
2022-09-16T22:48:42.277Z,101150.56
2022-09-16T22:51:10.641Z,101149.69
2022-09-16T22:53:37.689Z,101152.19
2022-09-16T22:56:10.155Z,101132.50
2022-09-16T22:58:36.889Z,101142.06
2022-09-16T23:01:03.503Z,101138.22
2022-09-16T23:03:30.614Z,101147.03
2022-09-16T23:05:58.822Z,101137.81
2022-09-16T23:08:26.087Z,101143.78
2022-09-16T23:10:53.076Z,101145.16
2022-09-16T23:13:21.747Z,101136.06
2022-09-16T23:15:53.595Z,101127.63
2022-09-16T23:18:21.177Z,101136.41
2022-09-16T23:20:57.872Z,101134.75
2022-09-16T23:23:25.095Z,101128.19
2022-09-16T23:25:52.196Z,101135.28
2022-09-16T23:28:18.800Z,101129.75
2022-09-16T23:30:45.940Z,101124.66
2022-09-16T23:33:12.641Z,101121.44
2022-09-16T23:35:39.433Z,101105.97
2022-09-16T23:38:06.161Z,101116.00
2022-09-16T23:40:36.879Z,101118.41
2022-09-16T23:43:03.493Z,101115.91
2022-09-16T23:45:30.165Z,101113.19
2022-09-16T23:47:56.913Z,101129.78
2022-09-16T23:50:23.518Z,101120.56
2022-09-16T23:52:50.246Z,101141.78
2022-09-16T23:55:16.938Z,101138.28
2022-09-16T23:57:43.598Z,101136.66
